パース の空港の天気 - METARとTAF

パース空港 ( YPPH / PER ) - オーストラリア 西オーストラリア州パース
飛行場実況気象(Metar)
観測時間01/29 15:00 AWST (01/29 07:00 UTC)
風向・風速西南西 8m/s
視程10km以上
天気現象
少しの雲 雲底高度 3050m
気温38℃
湿度23%
気圧1006hPa
METARYPPH 290700Z 25016KT 9999 FEW100CB 38/13 Q1006 HEARD
過去の天気等 Google飛行場航空写真 Wunderground天気予報

過去48時間のMETAR

飛行場予報(TAF)
発表時間: 1/29 13:07 AWST (1/29 05:07 UTC)
予報対象時間: 29日14時 AWST ~ 30日20時 AWST
風向・風速西南西 8m/s
視程10km以上
なし
29日19時 AWST から
風向・風速南南西 4m/s
視程10km以上
なし
29日23時 AWST から
風向・風速南南東 2m/s
視程10km以上
なし
30日9時 AWST から
風向・風速西南西 4m/s
視程10km以上
なし
30日13時 AWST から
風向・風速南西 7m/s
視程10km以上
なし
TAF YPPH 290507Z 2906/3012 24015KT CAVOK
FM291100 20008KT CAVOK
FM291500 15003KT CAVOK
FM300100 25008KT CAVOK
FM300500 23014KT CAVOK